Time;durP1;ratioP1;P1;durP2;ratioP2;P2;SDS_P1;SDS_P2;PMS_P1;PMS_P2;Temp;Humidity;BMP_temperature;BMP_pressure;BME280_temperature;BME280_humidity;BME280_pressure;Samples;Min_cycle;Max_cycle;Signal;HPM_P1;HPM_P2
2021/07/18 00:00:00;;;;;;;;;;;;;;;;;;5089080;28;19916;-70
2021/07/18 00:02:26;;;;;;;;;;;;;;;;;;5088747;28;19915;-68
2021/07/18 00:04:55;;;;;;;;;;;;;;;;;;5090393;28;19916;-68
2021/07/18 00:07:21;;;;;;;;;;;;;;;;;;5088536;28;19912;-68
2021/07/18 00:09:47;;;;;;;;;;;;;;;;;;5090068;28;20011;-68
2021/07/18 00:12:13;;;;;;;;;;;;;;;;;;5089982;28;19955;-68
2021/07/18 00:14:39;;;;;;;;;;;;;;;;;;5089670;28;19939;-68
2021/07/18 00:17:05;;;;;;;;;;;;;;;;;;5090032;28;19947;-69
2021/07/18 00:19:31;;;;;;;;;;;;;;;;;;5088670;28;20001;-69
2021/07/18 00:21:57;;;;;;;;;;;;;;;;;;5088378;28;19909;-70
2021/07/18 00:24:23;;;;;;;;;;;;;;;;;;5090144;28;20287;-68
2021/07/18 00:26:49;;;;;;;;;;;;;;;;;;5088623;28;19992;-70
2021/07/18 00:29:15;;;;;;;;;;;;;;;;;;5089368;28;20019;-70
2021/07/18 00:31:41;;;;;;;;;;;;;;;;;;5089773;28;19915;-69
2021/07/18 00:34:07;;;;;;;;;;;;;;;;;;5089773;28;20376;-68
2021/07/18 00:36:33;;;;;;;;;;;;;;;;;;5089237;28;19915;-68
2021/07/18 00:38:59;;;;;;;;;;;;;;;;;;5089607;28;20418;-68
2021/07/18 00:41:25;;;;;;;;;;;;;;;;;;5089570;28;19908;-68
2021/07/18 00:43:51;;;;;;;;;;;;;;;;;;5088122;28;19953;-69
2021/07/18 00:46:17;;;;;;;;;;;;;;;;;;5088237;28;20410;-68
2021/07/18 00:48:43;;;;;;;;;;;;;;;;;;5096935;28;19919;-69
2021/07/18 00:51:09;;;;;;;;;;;;;;;;;;5109364;28;20007;-68
2021/07/18 00:53:35;;;;;;;;;;;;;;;;;;5109765;28;19915;-69
2021/07/18 00:56:01;;;;;;;;;;;;;;;;;;5091364;28;20387;-68
2021/07/18 00:58:27;;;;;;;;;;;;;;;;;;5090807;28;19908;-69
2021/07/18 01:00:53;;;;;;;;;;;;;;;;;;5099924;28;19915;-69
2021/07/18 01:03:54;;;;;;;;;;;;;;;;;;5151859;27;20002;-67
2021/07/18 01:06:20;;;;;;;;;;;;;;;;;;5152217;27;19911;-67
2021/07/18 01:08:46;;;;;;;;;;;;;;;;;;5133440;27;19960;-69
2021/07/18 01:11:12;;;;;;;;;;;;;;;;;;5151565;27;20390;-67
2021/07/18 01:13:38;;;;;;;;;;;;;;;;;;5151900;27;19913;-67
2021/07/18 01:16:04;;;;;;;;;;;;;;;;;;5151799;27;19907;-68
2021/07/18 01:18:30;;;;;;;;;;;;;;;;;;5151422;27;19907;-68
2021/07/18 01:20:56;;;;;;;;;;;;;;;;;;5151778;27;19990;-68
2021/07/18 01:23:22;;;;;;;;;;;;;;;;;;5151693;27;20007;-68
2021/07/18 01:25:52;;;;;;;;;;;;;;;;;;5151625;27;19913;-68
2021/07/18 01:28:18;;;;;;;;;;;;;;;;;;5151684;27;19907;-68
2021/07/18 01:30:45;;;;;;;6.70;3.88;;;;;;;;;;5150868;27;20399;-68
2021/07/18 01:33:11;;;;;;;6.22;3.78;;;;;;;;;;5150582;27;20027;-68
2021/07/18 01:35:37;;;;;;;6.25;3.47;;;;;;;;;;5151001;27;20023;-68
2021/07/18 01:39:31;;;;;;;7.07;3.17;;;;;;;;;;5110016;27;20885;-67
2021/07/18 01:42:45;;;;;;;7.78;3.88;;;;;;;;;;5110384;27;20388;-69
2021/07/18 01:47:05;;;;;;;5.13;2.97;;;;;;;;;;5110256;27;20384;-67
2021/07/18 01:49:31;;;;;;;7.78;3.40;;;;;;;;;;5110382;28;20030;-67
2021/07/18 01:51:58;;;;;;;6.43;3.38;;;;;;;;;;5110340;28;20103;-68
2021/07/18 01:54:24;;;;;;;8.88;3.38;;;;;;;;;;5109950;28;20551;-68
2021/07/18 01:56:50;;;;;;;6.60;3.42;;;;;;;;;;5110275;28;20028;-68
2021/07/18 01:59:18;;;;;;;8.10;3.30;;;;;;;;;;5110206;28;20601;-67
2021/07/18 02:01:44;;;;;;;4.93;3.03;;;;;;;;;;5109810;28;20031;-67
2021/07/18 02:04:15;;;;;;;4.47;2.70;;;;;;;;;;5110153;28;20019;-67
2021/07/18 02:06:41;;;;;;;5.68;3.25;;;;;;;;;;5110249;28;20106;-68
2021/07/18 02:09:45;;;;;;;5.20;3.25;;;;;;;;;;5172410;27;20154;-70
2021/07/18 02:14:16;;;;;;;5.95;3.03;;;;;;;;;;5109886;27;20473;-68
2021/07/18 02:16:42;;;;;;;4.90;3.00;;;;;;;;;;5110396;28;20028;-71
2021/07/18 02:19:09;;;;;;;5.43;2.90;;;;;;;;;;5110371;28;20476;-69
2021/07/18 02:21:36;;;;;;;8.00;3.30;;;;;;;;;;5110181;28;20069;-68
2021/07/18 02:24:02;;;;;;;6.60;3.58;;;;;;;;;;5110354;28;20090;-68
2021/07/18 02:26:30;;;;;;;5.80;3.17;;;;;;;;;;5110422;28;20016;-69
2021/07/18 02:28:59;;;;;;;6.15;3.03;;;;;;;;;;5108508;28;20024;-68
2021/07/18 02:31:26;;;;;;;9.52;3.50;;;;;;;;;;5108836;28;20687;-68
2021/07/18 02:33:52;;;;;;;7.82;3.95;;;;;;;;;;5110028;28;20085;-68
2021/07/18 02:36:18;;;;;;;8.57;3.60;;;;;;;;;;5108361;28;20484;-68
2021/07/18 02:38:44;;;;;;;5.95;3.45;;;;;;;;;;5110019;28;20028;-68
2021/07/18 02:41:12;;;;;;;5.90;3.72;;;;;;;;;;5110006;28;20020;-68
2021/07/18 02:43:38;;;;;;;7.97;3.47;;;;;;;;;;5109508;28;20020;-69
2021/07/18 02:46:06;;;;;;;8.18;3.67;;;;;;;;;;5108747;28;20028;-69
2021/07/18 02:48:32;;;;;;;6.35;3.40;;;;;;;;;;5109845;28;20024;-68
2021/07/18 02:50:58;;;;;;;7.68;3.72;;;;;;;;;;5108116;28;20020;-68
2021/07/18 02:53:24;;;;;;;6.30;3.50;;;;;;;;;;5108329;28;20118;-68
2021/07/18 02:55:51;;;;;;;6.13;3.25;;;;;;;;;;5108371;28;20024;-68
2021/07/18 03:01:48;;;;;;;6.95;3.55;;;;;;;;;;5110336;27;20504;-67
2021/07/18 03:04:14;;;;;;;6.57;3.83;;;;;;;;;;5108741;28;20101;-69
2021/07/18 03:06:40;;;;;;;7.00;3.33;;;;;;;;;;5110549;28;20035;-69
2021/07/18 03:09:06;;;;;;;4.50;3.30;;;;;;;;;;5110533;28;20016;-68
2021/07/18 03:13:03;;;;;;;8.57;3.83;;;;;;;;;;5110291;27;20450;-69
2021/07/18 03:15:30;;;;;;;7.38;3.75;;;;;;;;;;5110465;28;20036;-68
2021/07/18 03:17:56;;;;;;;8.85;4.25;;;;;;;;;;5108588;28;20020;-68
2021/07/18 03:20:23;;;;;;;6.30;3.42;;;;;;;;;;5110345;28;20024;-68
2021/07/18 03:24:54;;;;;;;7.60;3.13;;;;;;;;;;5110138;27;20393;-68
2021/07/18 03:27:20;;;;;;;6.38;3.38;;;;;;;;;;5110707;28;20476;-67
2021/07/18 03:29:46;;;;;;;5.68;3.40;;;;;;;;;;5110453;28;20023;-68
2021/07/18 03:32:13;;;;;;;8.00;3.47;;;;;;;;;;5108693;28;20110;-68
2021/07/18 03:36:48;;;;;;;6.60;3.15;;;;;;;;;;5110378;27;20505;-67
2021/07/18 03:39:15;;;;;;;5.20;3.13;;;;;;;;;;5110066;28;20062;-67
2021/07/18 03:41:41;;;;;;;7.35;3.33;;;;;;;;;;5110310;28;20488;-67
2021/07/18 03:44:07;;;;;;;4.57;3.05;;;;;;;;;;5110341;28;20050;-67
2021/07/18 03:46:33;;;;;;;6.63;3.47;;;;;;;;;;5110024;28;20498;-67
2021/07/18 03:48:59;;;;;;;6.47;3.65;;;;;;;;;;5110459;28;20030;-67
2021/07/18 03:51:26;;;;;;;5.95;3.17;;;;;;;;;;5110172;28;20031;-67
2021/07/18 03:53:52;;;;;;;7.30;3.38;;;;;;;;;;5109723;28;20036;-67
2021/07/18 03:56:22;;;;;;;10.10;3.25;;;;;;;;;;5108760;28;20063;-67
2021/07/18 03:58:48;;;;;;;5.72;3.42;;;;;;;;;;5110385;28;20097;-67
2021/07/18 04:01:14;;;;;;;7.70;3.53;;;;;;;;;;5109708;28;20026;-68
2021/07/18 04:03:41;;;;;;;6.45;3.85;;;;;;;;;;5110017;28;20091;-68
2021/07/18 04:06:07;;;;;;;6.53;3.53;;;;;;;;;;5110140;28;20039;-68
2021/07/18 04:08:34;;;;;;;6.30;3.30;;;;;;;;;;5109919;28;20016;-67
2021/07/18 04:11:00;;;;;;;5.60;3.20;;;;;;;;;;5109820;28;20023;-68
2021/07/18 04:13:26;;;;;;;7.53;2.90;;;;;;;;;;5109324;28;20020;-68
2021/07/18 04:15:52;;;;;;;5.53;2.88;;;;;;;;;;5108348;28;20053;-68
2021/07/18 04:18:19;;;;;;;5.93;3.42;;;;;;;;;;5109601;28;20484;-68
2021/07/18 04:21:28;;;;;;;6.50;3.20;;;;;;;;;;5110148;27;20389;-67
2021/07/18 04:23:54;;;;;;;5.68;3.15;;;;;;;;;;5110398;28;20027;-67
2021/07/18 04:26:20;;;;;;;4.88;2.85;;;;;;;;;;5126243;28;20052;-66
2021/07/18 04:28:47;;;;;;;5.80;3.00;;;;;;;;;;5110181;28;20058;-70
2021/07/18 04:31:13;;;;;;;6.65;3.15;;;;;;;;;;5110542;28;20084;-68
2021/07/18 04:33:40;;;;;;;4.68;2.72;;;;;;;;;;5126058;28;20047;-68
2021/07/18 04:36:06;;;;;;;5.15;3.28;;;;;;;;;;5109804;28;20073;-68
2021/07/18 04:38:32;;;;;;;4.75;3.13;;;;;;;;;;5110075;28;20049;-68
2021/07/18 04:40:58;;;;;;;5.25;3.25;;;;;;;;;;5125811;28;20036;-68
2021/07/18 04:43:24;;;;;;;6.68;3.80;;;;;;;;;;5125588;28;20012;-68
2021/07/18 04:45:50;;;;;;;5.05;3.17;;;;;;;;;;5110142;28;20395;-68
2021/07/18 04:48:17;;;;;;;6.18;3.40;;;;;;;;;;5110076;28;20055;-72
2021/07/18 04:50:45;;;;;;;6.70;3.80;;;;;;;;;;5109542;28;20090;-69
2021/07/18 04:54:48;;;;;;;7.20;3.58;;;;;;;;;;5110370;27;20516;-69
2021/07/18 04:57:14;;;;;;;5.00;3.05;;;;;;;;;;5110013;28;20104;-69
2021/07/18 04:59:40;;;;;;;7.40;3.55;;;;;;;;;;5110356;28;20099;-69
2021/07/18 05:02:06;;;;;;;5.72;3.13;;;;;;;;;;5110370;28;20016;-69
2021/07/18 05:04:32;;;;;;;9.23;4.93;;;;;;;;;;5109998;28;20023;-69
2021/07/18 05:06:58;;;;;;;6.85;3.38;;;;;;;;;;5110477;28;20045;-69
2021/07/18 05:09:25;;;;;;;6.10;3.53;;;;;;;;;;5109007;28;20020;-69
2021/07/18 05:11:51;;;;;;;9.80;5.45;;;;;;;;;;5109982;28;20513;-69
2021/07/18 05:15:22;;;;;;;6.07;3.65;;;;;;;;;;5069879;28;20406;-68
2021/07/18 05:17:48;;;;;;;6.20;3.75;;;;;;;;;;5069429;28;20035;-68
2021/07/18 05:20:16;;;;;;;6.07;3.53;;;;;;;;;;5069808;28;20036;-68
2021/07/18 05:22:43;;;;;;;5.15;3.05;;;;;;;;;;5069770;28;20070;-68
2021/07/18 05:25:10;;;;;;;9.90;3.75;;;;;;;;;;5068240;28;20021;-68
2021/07/18 05:27:36;;;;;;;10.57;5.60;;;;;;;;;;5069860;28;20078;-68
2021/07/18 05:30:04;;;;;;;7.90;4.32;;;;;;;;;;5069633;28;20025;-68
2021/07/18 05:32:30;;;;;;;6.60;3.38;;;;;;;;;;5067847;28;20070;-68
2021/07/18 05:34:56;;;;;;;5.78;3.20;;;;;;;;;;5069404;28;20507;-68
2021/07/18 05:37:23;;;;;;;5.95;3.22;;;;;;;;;;5068011;28;20503;-68
2021/07/18 05:41:23;;;;;;;7.45;3.50;;;;;;;;;;5110368;27;20422;-68
2021/07/18 05:43:49;;;;;;;6.13;3.60;;;;;;;;;;5109100;28;20024;-69
2021/07/18 05:46:16;;;;;;;6.90;3.30;;;;;;;;;;5110096;28;20028;-68
2021/07/18 05:48:42;;;;;;;5.93;3.13;;;;;;;;;;5110412;28;20027;-70
2021/07/18 05:51:08;;;;;;;4.65;2.92;;;;;;;;;;5110352;28;20031;-70
2021/07/18 05:53:34;;;;;;;8.00;3.40;;;;;;;;;;5109894;28;20027;-70
2021/07/18 05:56:00;;;;;;;5.38;3.15;;;;;;;;;;5110259;28;20028;-71
2021/07/18 05:58:26;;;;;;;6.57;3.28;;;;;;;;;;5110115;28;20480;-69
2021/07/18 06:02:54;;;;;;;5.35;3.20;;;;;;;;;;5110382;27;20473;-70
2021/07/18 06:05:20;;;;;;;6.05;3.20;;;;;;;;;;5110518;28;20484;-69
2021/07/18 06:07:46;;;;;;;9.68;3.63;;;;;;;;;;5110087;28;20024;-69
2021/07/18 06:10:12;;;;;;;7.15;3.58;;;;;;;;;;5110409;28;20099;-69
2021/07/18 06:12:39;;;;;;;6.93;3.22;;;;;;;;;;5110217;28;20483;-69
2021/07/18 06:15:05;;;;;;;5.07;3.33;;;;;;;;;;5109790;28;20484;-69
2021/07/18 06:17:32;;;;;;;6.03;3.30;;;;;;;;;;5110121;28;20066;-69
2021/07/18 06:19:58;;;;;;;4.88;3.05;;;;;;;;;;5110101;28;20484;-69
2021/07/18 06:22:24;;;;;;;5.25;2.88;;;;;;;;;;5109558;28;20044;-69
2021/07/18 06:24:51;;;;;;;6.78;3.22;;;;;;;;;;5110149;28;20031;-68
2021/07/18 06:27:17;;;;;;;6.43;3.00;;;;;;;;;;5109717;28;20067;-68
2021/07/18 06:29:43;;;;;;;7.60;3.30;;;;;;;;;;5110055;28;20388;-68
2021/07/18 06:32:09;;;;;;;9.85;3.47;;;;;;;;;;5109904;28;20020;-68
2021/07/18 06:34:35;;;;;;;5.30;2.90;;;;;;;;;;5109456;28;20376;-69
2021/07/18 06:37:02;;;;;;;5.40;3.33;;;;;;;;;;5109844;28;20077;-69
2021/07/18 06:39:28;;;;;;;5.55;2.92;;;;;;;;;;5109737;28;20020;-69
2021/07/18 06:41:54;;;;;;;6.55;3.28;;;;;;;;;;5109253;28;20114;-69
2021/07/18 06:44:20;;;;;;;4.95;2.88;;;;;;;;;;5109629;28;20024;-69
2021/07/18 06:46:46;;;;;;;6.28;3.30;;;;;;;;;;5109908;28;20020;-69
2021/07/18 06:49:13;;;;;;;5.05;3.28;;;;;;;;;;5109351;28;20023;-69
2021/07/18 06:51:39;;;;;;;4.93;2.90;;;;;;;;;;5109566;28;20027;-70
2021/07/18 06:54:05;;;;;;;7.97;4.18;;;;;;;;;;5109477;28;20027;-69
2021/07/18 06:56:32;;;;;;;9.65;3.25;;;;;;;;;;5109098;28;20479;-69
2021/07/18 06:58:58;;;;;;;13.15;3.00;;;;;;;;;;5109415;28;20480;-68
2021/07/18 07:01:24;;;;;;;7.80;3.78;;;;;;;;;;5109118;28;20047;-68
2021/07/18 07:03:51;;;;;;;5.68;3.03;;;;;;;;;;5109024;28;20012;-68
2021/07/18 07:06:17;;;;;;;6.45;3.22;;;;;;;;;;5109265;28;20043;-69
2021/07/18 07:08:43;;;;;;;8.82;3.92;;;;;;;;;;5109446;28;20024;-68
2021/07/18 07:12:02;;;;;;;7.22;3.67;;;;;;;;;;5110389;27;20388;-70
2021/07/18 07:14:29;;;;;;;7.10;3.50;;;;;;;;;;5110354;28;20028;-69
2021/07/18 07:19:05;;;;;;;8.00;3.42;;;;;;;;;;5110332;27;20509;-68
2021/07/18 07:21:31;;;;;;;5.78;3.35;;;;;;;;;;5109184;28;20039;-68
2021/07/18 07:23:58;;;;;;;5.43;3.25;;;;;;;;;;5109927;28;20023;-69
2021/07/18 07:26:24;;;;;;;5.95;3.38;;;;;;;;;;5110464;28;20046;-68
2021/07/18 07:28:50;;;;;;;5.82;3.38;;;;;;;;;;5110419;28;20484;-68
2021/07/18 07:31:16;;;;;;;4.78;3.08;;;;;;;;;;5108596;28;20137;-68
2021/07/18 07:33:42;;;;;;;6.03;3.13;;;;;;;;;;5110191;28;20472;-68
2021/07/18 07:36:09;;;;;;;7.75;3.22;;;;;;;;;;5110123;28;20020;-69
2021/07/18 07:38:36;;;;;;;5.28;2.95;;;;;;;;;;5108371;28;20062;-69
2021/07/18 07:41:02;;;;;;;5.85;3.40;;;;;;;;;;5110004;28;20020;-68
2021/07/18 07:43:29;;;;;;;7.13;2.95;;;;;;;;;;5108751;28;20024;-68
2021/07/18 07:46:53;;;;;;;5.95;3.47;;;;;;;;;;5110064;27;20388;-69
2021/07/18 07:49:19;;;;;;;6.20;3.50;;;;;;;;;;5109175;28;20024;-68
2021/07/18 07:51:45;;;;;;;6.07;3.20;;;;;;;;;;5109946;28;20019;-68
2021/07/18 07:54:12;;;;;;;11.23;3.72;;;;;;;;;;5110294;28;20055;-68
2021/07/18 07:56:38;;;;;;;5.97;3.42;;;;;;;;;;5110208;28;20065;-68
2021/07/18 07:59:04;;;;;;;5.32;3.38;;;;;;;;;;5108511;28;20026;-68
2021/07/18 08:01:31;;;;;;;6.25;3.05;;;;;;;;;;5110279;28;20032;-68
2021/07/18 08:03:57;;;;;;;5.85;3.70;;;;;;;;;;5108830;28;20048;-68
2021/07/18 08:06:23;;;;;;;8.30;5.28;;;;;;;;;;5109603;28;20088;-69
2021/07/18 08:09:01;;;;;;;8.85;4.10;;;;;;;;;;5110550;27;20439;-68
2021/07/18 08:11:27;;;;;;;7.43;3.90;;;;;;;;;;5110355;28;20440;-68
2021/07/18 08:13:53;;;;;;;8.48;4.18;;;;;;;;;;5109943;28;20043;-68
2021/07/18 08:16:20;;;;;;;6.75;3.40;;;;;;;;;;5110318;28;20028;-68
2021/07/18 08:18:46;;;;;;;5.95;3.65;;;;;;;;;;5110319;28;20447;-69
2021/07/18 08:21:12;;;;;;;7.28;4.07;;;;;;;;;;5109780;28;20581;-68
2021/07/18 08:23:38;;;;;;;8.35;3.78;;;;;;;;;;5110167;28;20498;-68
2021/07/18 08:26:05;;;;;;;7.47;4.43;;;;;;;;;;5110175;28;20027;-68
2021/07/18 08:28:31;;;;;;;8.80;4.18;;;;;;;;;;5109800;28;20028;-68
2021/07/18 08:30:57;;;;;;;6.40;4.03;;;;;;;;;;5110127;28;20020;-68
2021/07/18 08:33:24;;;;;;;9.73;4.13;;;;;;;;;;5110041;28;20024;-68
2021/07/18 08:35:50;;;;;;;10.48;4.88;;;;;;;;;;5109635;28;20384;-68
2021/07/18 08:38:16;;;;;;;7.75;4.30;;;;;;;;;;5109911;28;20016;-69
2021/07/18 08:40:42;;;;;;;8.40;4.78;;;;;;;;;;5108627;28;20452;-69
2021/07/18 08:43:08;;;;;;;15.50;4.97;;;;;;;;;;5109780;28;20146;-69
2021/07/18 08:45:34;;;;;;;12.70;4.72;;;;;;;;;;5109796;28;20118;-68
2021/07/18 08:48:01;;;;;;;6.30;4.47;;;;;;;;;;5109395;28;20036;-68
2021/07/18 08:50:28;;;;;;;8.60;4.43;;;;;;;;;;5109677;28;20016;-69
2021/07/18 08:52:55;;;;;;;9.15;4.82;;;;;;;;;;5109617;28;20476;-69
2021/07/18 08:55:23;;;;;;;9.32;5.38;;;;;;;;;;5109208;28;20476;-69
2021/07/18 08:57:49;;;;;;;12.15;4.85;;;;;;;;;;5109528;28;20033;-69
2021/07/18 09:00:16;;;;;;;9.23;4.50;;;;;;;;;;5109503;28;20028;-69
2021/07/18 09:02:42;;;;;;;11.73;4.40;;;;;;;;;;5109112;28;20024;-69
2021/07/18 09:05:09;;;;;;;9.27;4.57;;;;;;;;;;5109576;28;20028;-69
2021/07/18 09:07:52;;;;;;;9.98;4.45;;;;;;;;;;5107811;28;20044;-69
2021/07/18 09:10:26;;;;;;;7.50;4.50;;;;;;;;;;5108929;28;20028;-69
2021/07/18 09:13:02;;;;;;;10.95;4.35;;;;;;;;;;5107993;28;20028;-69
2021/07/18 09:19:26;;;;;;;8.00;4.63;;;;;;;;;;5110443;27;20388;-68
2021/07/18 09:22:15;;;;;;;13.32;5.05;;;;;;;;;;5110490;28;20514;-68
2021/07/18 09:24:44;;;;;;;11.43;5.80;;;;;;;;;;5098600;28;20043;-68
2021/07/18 09:27:12;;;;;;;9.63;5.22;;;;;;;;;;5110303;28;20388;-69
2021/07/18 09:29:40;;;;;;;14.45;5.53;;;;;;;;;;5110296;28;20051;-68
2021/07/18 09:32:17;;;;;;;8.45;5.00;;;;;;;;;;5109787;28;20020;-69
2021/07/18 09:34:48;;;;;;;9.82;4.95;;;;;;;;;;5110245;28;20499;-69
2021/07/18 09:37:22;;;;;;;9.98;4.70;;;;;;;;;;5110009;28;20093;-69
2021/07/18 09:42:50;;;;;;;9.35;4.88;;;;;;;;;;5069855;28;20457;-68
2021/07/18 09:45:20;;;;;;;8.48;5.20;;;;;;;;;;5069436;28;20033;-68
2021/07/18 09:47:50;;;;;;;8.98;5.30;;;;;;;;;;5068410;28;20049;-68
2021/07/18 09:50:17;;;;;;;8.68;4.47;;;;;;;;;;5069461;28;20546;-68
2021/07/18 10:08:46;;;;;;;11.93;5.07;;;;;;;;;;5089599;27;20787;-71
2021/07/18 10:11:15;;;;;;;7.30;5.43;;;;;;;;;;5089235;28;20032;-73
2021/07/18 10:13:42;;;;;;;11.20;6.15;;;;;;;;;;5089373;28;20024;-70
2021/07/18 10:16:09;;;;;;;15.65;7.13;;;;;;;;;;5089370;28;20016;-67
2021/07/18 10:18:36;;;;;;;15.13;8.07;;;;;;;;;;5088968;28;20060;-69
2021/07/18 10:21:03;;;;;;;16.58;9.38;;;;;;;;;;5089343;28;20038;-69
2021/07/18 10:24:15;;;;;;;13.48;9.15;;;;;;;;;;5110087;27;20968;-69
2021/07/18 10:28:44;;;;;;;14.55;9.88;;;;;;;;;;5110306;27;20397;-69
2021/07/18 10:31:12;;;;;;;14.93;10.18;;;;;;;;;;5110358;28;20035;-69
2021/07/18 10:33:39;;;;;;;16.48;10.85;;;;;;;;;;5108691;28;20028;-69
2021/07/18 10:36:05;;;;;;;18.15;11.50;;;;;;;;;;5110248;28;20027;-69
2021/07/18 10:38:34;;;;;;;15.43;10.68;;;;;;;;;;5110154;28;20028;-70
2021/07/18 10:43:41;;;;;;;13.43;7.75;;;;;;;;;;5091197;27;1621103;-69
2021/07/18 10:47:49;;;;;;;14.68;8.32;;;;;;;;;;5100789;27;1528543;-70
2021/07/18 10:50:15;;;;;;;16.42;8.45;;;;;;;;;;5129379;28;20035;-70
2021/07/18 10:52:42;;;;;;;11.43;7.85;;;;;;;;;;5130793;28;20054;-70
2021/07/18 10:55:22;;;;;;;13.57;7.68;;;;;;;;;;5130461;28;20035;-70
2021/07/18 10:59:53;;;;;;;11.70;7.25;;;;;;;;;;5110362;27;21039;-70
2021/07/18 11:03:53;;;;;;;10.02;7.03;;;;;;;;;;5110251;27;20381;-70
2021/07/18 11:06:28;;;;;;;10.45;7.57;;;;;;;;;;5110546;28;20081;-70
2021/07/18 11:09:06;;;;;;;12.00;7.65;;;;;;;;;;5109977;28;20125;-70
2021/07/18 11:11:51;;;;;;;10.20;6.85;;;;;;;;;;5110260;28;20028;-70
2021/07/18 11:14:34;;;;;;;11.35;6.88;;;;;;;;;;5109979;28;20498;-70
2021/07/18 11:17:06;;;;;;;9.85;6.63;;;;;;;;;;5110186;28;20193;-71
2021/07/18 11:19:38;;;;;;;9.30;5.97;;;;;;;;;;5110126;28;20495;-70
2021/07/18 11:22:11;;;;;;;10.40;6.40;;;;;;;;;;5109590;28;20030;-70
2021/07/18 11:24:55;;;;;;;9.10;6.20;;;;;;;;;;5108612;28;20539;-70
2021/07/18 11:27:24;;;;;;;11.23;6.20;;;;;;;;;;5110086;28;20085;-70
2021/07/18 11:29:51;;;;;;;10.10;5.63;;;;;;;;;;5109496;28;20468;-70
2021/07/18 11:32:21;;;;;;;15.18;8.23;;;;;;;;;;5109832;28;20493;-71
2021/07/18 11:34:47;;;;;;;8.48;5.55;;;;;;;;;;5109852;28;20096;-71
2021/07/18 11:37:17;;;;;;;9.98;6.68;;;;;;;;;;5109918;28;20363;-70
2021/07/18 11:39:44;;;;;;;8.20;5.40;;;;;;;;;;5109608;28;20107;-70
2021/07/18 11:42:15;;;;;;;8.20;5.10;;;;;;;;;;5109541;28;20027;-70
2021/07/18 11:44:43;;;;;;;7.80;5.15;;;;;;;;;;5109210;28;20089;-70
2021/07/18 11:47:14;;;;;;;8.00;4.82;;;;;;;;;;5109823;28;20077;-70
2021/07/18 11:49:42;;;;;;;8.60;4.90;;;;;;;;;;5109333;28;20541;-71
2021/07/18 11:52:09;;;;;;;11.00;6.43;;;;;;;;;;5109379;28;20031;-71
2021/07/18 11:54:36;;;;;;;10.57;6.35;;;;;;;;;;5109371;28;20028;-71
2021/07/18 11:57:06;;;;;;;9.70;5.80;;;;;;;;;;5108869;28;20024;-71
2021/07/18 11:59:34;;;;;;;13.05;5.85;;;;;;;;;;5109168;28;20016;-71
2021/07/18 12:02:00;;;;;;;9.30;5.97;;;;;;;;;;5108989;28;20043;-71
2021/07/18 12:04:27;;;;;;;9.93;5.10;;;;;;;;;;5108796;28;20047;-71
2021/07/18 12:06:55;;;;;;;13.55;7.43;;;;;;;;;;5107876;28;20417;-71
2021/07/18 12:09:22;;;;;;;9.05;5.65;;;;;;;;;;5109197;28;20019;-71
2021/07/18 12:12:23;;;;;;;8.77;5.65;;;;;;;;;;5109844;27;20461;-71
2021/07/18 12:14:53;;;;;;;11.98;6.22;;;;;;;;;;5110115;28;20399;-71
2021/07/18 12:17:20;;;;;;;11.02;6.18;;;;;;;;;;5110507;28;20024;-71
2021/07/18 12:19:46;;;;;;;9.27;5.63;;;;;;;;;;5109844;28;20099;-71
2021/07/18 12:22:18;;;;;;;7.35;5.45;;;;;;;;;;5110113;28;20020;-71
2021/07/18 12:24:48;;;;;;;8.35;5.43;;;;;;;;;;5109705;28;20540;-71
2021/07/18 12:27:21;;;;;;;12.13;5.63;;;;;;;;;;5108811;28;20032;-71
2021/07/18 12:29:49;;;;;;;8.18;5.68;;;;;;;;;;5110209;28;20541;-71
2021/07/18 12:32:16;;;;;;;11.43;5.95;;;;;;;;;;5109481;28;20467;-71
2021/07/18 12:34:43;;;;;;;12.45;6.72;;;;;;;;;;5109792;28;20024;-71
2021/07/18 12:37:10;;;;;;;12.52;6.55;;;;;;;;;;5109925;28;20068;-71
2021/07/18 12:39:40;;;;;;;9.57;5.80;;;;;;;;;;5108351;28;20027;-71
2021/07/18 12:42:08;;;;;;;9.85;5.57;;;;;;;;;;5109719;28;20483;-71
2021/07/18 12:44:36;;;;;;;18.10;5.30;;;;;;;;;;5109658;28;20028;-71
2021/07/18 12:47:16;;;;;;;10.77;5.55;;;;;;;;;;5109255;28;20065;-72
2021/07/18 12:49:42;;;;;;;7.45;4.97;;;;;;;;;;5109912;28;20024;-72
2021/07/18 12:52:08;;;;;;;9.70;4.63;;;;;;;;;;5109574;28;20035;-72
2021/07/18 12:54:34;;;;;;;6.97;4.38;;;;;;;;;;5109117;28;20079;-72
2021/07/18 12:57:00;;;;;;;6.22;3.75;;;;;;;;;;5109472;28;20479;-72
2021/07/18 12:59:27;;;;;;;9.13;4.50;;;;;;;;;;5109350;28;20024;-71
2021/07/18 13:01:53;;;;;;;7.10;4.22;;;;;;;;;;5108976;28;20085;-72
2021/07/18 13:04:32;;;;;;;6.68;4.03;;;;;;;;;;5109566;28;20100;-72
2021/07/18 13:06:58;;;;;;;7.10;4.22;;;;;;;;;;5109266;28;20105;-71
2021/07/18 13:09:25;;;;;;;12.00;4.80;;;;;;;;;;5109291;28;20035;-72
2021/07/18 13:11:52;;;;;;;6.05;3.75;;;;;;;;;;5108999;28;20066;-72
2021/07/18 13:14:35;;;;;;;6.35;3.92;;;;;;;;;;5108738;28;20026;-71
2021/07/18 13:17:05;;;;;;;6.95;4.13;;;;;;;;;;5109222;28;20562;-71
2021/07/18 13:19:31;;;;;;;10.07;4.43;;;;;;;;;;5109078;28;20028;-71
2021/07/18 13:22:02;;;;;;;8.18;4.10;;;;;;;;;;5103704;28;20024;-71
2021/07/18 13:24:37;;;;;;;7.40;4.28;;;;;;;;;;5095584;28;20024;-70
2021/07/18 13:27:10;;;;;;;5.68;3.85;;;;;;;;;;5095408;28;20027;-71
2021/07/18 13:29:39;;;;;;;10.30;4.35;;;;;;;;;;5094899;28;20028;-70
2021/07/18 13:32:12;;;;;;;7.78;4.90;;;;;;;;;;5095206;28;20061;-72
2021/07/18 13:34:40;;;;;;;6.10;4.28;;;;;;;;;;5095736;28;20379;-72
2021/07/18 13:37:06;;;;;;;7.82;4.65;;;;;;;;;;5094969;28;20020;-71
2021/07/18 13:39:33;;;;;;;7.28;4.82;;;;;;;;;;5095189;28;20047;-70
2021/07/18 13:42:10;;;;;;;9.80;7.13;;;;;;;;;;5094666;28;20027;-71
2021/07/18 13:44:40;;;;;;;6.53;4.65;;;;;;;;;;5095050;28;20039;-72
2021/07/18 13:47:06;;;;;;;9.05;5.97;;;;;;;;;;5095193;28;20020;-72
2021/07/18 13:49:33;;;;;;;8.57;4.80;;;;;;;;;;5094694;28;20468;-71
2021/07/18 13:52:00;;;;;;;9.85;4.95;;;;;;;;;;5095028;28;20039;-72
2021/07/18 13:54:26;;;;;;;6.80;4.45;;;;;;;;;;5095475;28;20020;-72
2021/07/18 13:56:53;;;;;;;10.25;7.22;;;;;;;;;;5094498;28;20024;-73
2021/07/18 13:59:19;;;;;;;13.65;8.20;;;;;;;;;;5093414;28;20020;-72
2021/07/18 14:01:46;;;;;;;11.05;9.02;;;;;;;;;;5094678;28;20020;-72
2021/07/18 14:04:12;;;;;;;11.25;5.10;;;;;;;;;;5093060;28;20024;-72
2021/07/18 14:06:38;;;;;;;9.02;4.85;;;;;;;;;;5094839;28;20024;-71
2021/07/18 14:09:23;;;;;;;7.47;5.82;;;;;;;;;;5094623;28;20028;-72
2021/07/18 14:13:24;;;;;;;9.60;6.78;;;;;;;;;;5110286;27;20473;-71
2021/07/18 14:15:50;;;;;;;6.97;4.75;;;;;;;;;;5110364;28;20024;-71
2021/07/18 14:18:16;;;;;;;10.15;5.88;;;;;;;;;;5109780;28;20031;-72
2021/07/18 14:20:42;;;;;;;9.13;4.68;;;;;;;;;;5110049;28;20100;-72
2021/07/18 14:23:10;;;;;;;6.00;3.72;;;;;;;;;;5110031;28;20098;-72
2021/07/18 14:25:38;;;;;;;8.68;4.50;;;;;;;;;;5109781;28;20486;-72
2021/07/18 14:28:04;;;;;;;9.77;5.30;;;;;;;;;;5108676;28;20039;-72
2021/07/18 14:30:31;;;;;;;7.70;5.15;;;;;;;;;;5109869;28;20091;-72
2021/07/18 14:32:58;;;;;;;7.97;5.22;;;;;;;;;;5109335;28;20028;-72
2021/07/18 14:35:25;;;;;;;10.13;5.65;;;;;;;;;;5109735;28;20020;-72
2021/07/18 14:37:51;;;;;;;9.02;5.88;;;;;;;;;;5109769;28;20020;-72
2021/07/18 14:40:18;;;;;;;10.93;5.47;;;;;;;;;;5109334;28;20024;-72
2021/07/18 14:42:44;;;;;;;7.95;5.20;;;;;;;;;;5109623;28;20096;-72
2021/07/18 14:45:12;;;;;;;8.95;5.30;;;;;;;;;;5109241;28;20023;-72
2021/07/18 14:47:38;;;;;;;7.47;5.13;;;;;;;;;;5109636;28;20165;-72
2021/07/18 14:50:05;;;;;;;8.38;5.45;;;;;;;;;;5109473;28;20016;-72
2021/07/18 14:52:31;;;;;;;9.48;5.47;;;;;;;;;;5109101;28;20039;-72
2021/07/18 14:56:37;;;;;;;11.85;5.18;;;;;;;;;;5110062;27;20408;-71
2021/07/18 14:59:04;;;;;;;9.40;5.80;;;;;;;;;;5110050;28;20098;-71
2021/07/18 15:01:30;;;;;;;9.00;5.90;;;;;;;;;;5109541;28;20016;-70
2021/07/18 15:03:57;;;;;;;12.25;7.32;;;;;;;;;;5110084;28;20453;-71
2021/07/18 15:06:23;;;;;;;11.77;6.63;;;;;;;;;;5109698;28;20077;-71
2021/07/18 15:08:49;;;;;;;10.70;6.70;;;;;;;;;;5110207;28;20020;-73
2021/07/18 15:11:15;;;;;;;10.52;6.45;;;;;;;;;;5110154;28;20024;-73
2021/07/18 15:13:41;;;;;;;11.65;7.30;;;;;;;;;;5109664;28;20376;-70
2021/07/18 15:16:07;;;;;;;15.98;7.40;;;;;;;;;;5110225;28;20114;-70
2021/07/18 15:18:35;;;;;;;12.65;6.97;;;;;;;;;;5109926;28;20511;-70
2021/07/18 15:21:01;;;;;;;11.82;7.50;;;;;;;;;;5109591;28;20093;-72
2021/07/18 15:23:27;;;;;;;12.00;7.82;;;;;;;;;;5109739;28;20028;-71
2021/07/18 15:25:54;;;;;;;11.27;7.28;;;;;;;;;;5109969;28;20093;-71
2021/07/18 15:28:20;;;;;;;11.07;7.05;;;;;;;;;;5109502;28;20024;-71
2021/07/18 15:30:47;;;;;;;11.75;7.47;;;;;;;;;;5109671;28;20484;-72
2021/07/18 15:33:13;;;;;;;9.93;7.22;;;;;;;;;;5109542;28;20031;-71
2021/07/18 15:35:40;;;;;;;10.02;6.78;;;;;;;;;;5107911;28;20028;-71
2021/07/18 15:38:06;;;;;;;11.38;7.22;;;;;;;;;;5109584;28;20054;-72
2021/07/18 15:40:32;;;;;;;11.00;7.95;;;;;;;;;;5109644;28;20028;-72
2021/07/18 15:42:58;;;;;;;14.45;9.35;;;;;;;;;;5109095;28;20031;-72
2021/07/18 15:45:24;;;;;;;12.98;8.95;;;;;;;;;;5109409;28;20028;-71
2021/07/18 15:47:51;;;;;;;15.35;9.52;;;;;;;;;;5108332;28;20030;-71
2021/07/18 16:47:37;;;;;;;9.80;6.75;;;;;;;;;;5069527;28;20391;-71
2021/07/18 16:51:41;;;;;;;11.30;6.32;;;;;;;;;;5069318;28;20422;-71
2021/07/18 16:55:49;;;;;;;10.30;6.38;;;;;;;;;;5110370;27;20393;-71